Time;durP1;ratioP1;P1;durP2;ratioP2;P2;SDS_P1;SDS_P2;PMS_P1;PMS_P2;Temp;Humidity;BMP_temperature;BMP_pressure;BME280_temperature;BME280_humidity;BME280_pressure;Samples;Min_cycle;Max_cycle;Signal;HPM_P1;HPM_P2
2023/07/14 00:01:35;;;;;;;1.10;1.10;;;23.90;71.60;;;;;;5076147;28;43944;-76
2023/07/14 00:04:03;;;;;;;1.00;1.00;;;23.80;71.90;;;;;;5084364;28;43835;-70
2023/07/14 00:06:33;;;;;;;0.90;0.90;;;23.90;72.10;;;;;;5080759;28;43434;-70
2023/07/14 00:09:02;;;;;;;1.00;1.00;;;23.80;71.90;;;;;;5082421;28;43603;-70
2023/07/14 00:11:30;;;;;;;0.97;0.97;;;23.80;71.80;;;;;;5083082;27;43360;-70
2023/07/14 00:13:58;;;;;;;1.00;1.00;;;23.80;72.00;;;;;;5073412;28;43596;-70
2023/07/14 00:16:29;;;;;;;1.10;1.10;;;23.80;72.20;;;;;;5063627;28;44630;-70
2023/07/14 00:18:57;;;;;;;1.10;1.10;;;23.90;72.00;;;;;;5071039;28;43442;-70
2023/07/14 00:21:26;;;;;;;1.10;1.10;;;23.90;71.50;;;;;;5059767;28;43540;-72
2023/07/14 00:23:58;;;;;;;1.07;1.07;;;24.10;71.30;;;;;;5079540;28;43783;-71
2023/07/14 00:26:27;;;;;;;0.97;0.97;;;24.10;70.90;;;;;;5065410;28;44119;-72
2023/07/14 00:28:56;;;;;;;1.20;1.20;;;24.20;70.80;;;;;;5057874;28;44157;-72
2023/07/14 00:31:24;;;;;;;0.97;0.97;;;24.10;70.80;;;;;;5069508;28;43655;-71
2023/07/14 00:33:53;;;;;;;1.07;1.07;;;24.10;71.00;;;;;;5087013;28;43697;-72
2023/07/14 00:36:22;;;;;;;1.10;1.10;;;24.00;71.10;;;;;;5066873;28;44723;-70
2023/07/14 00:38:50;;;;;;;1.10;1.10;;;24.00;71.10;;;;;;5064710;28;43844;-70
2023/07/14 00:41:20;;;;;;;1.10;1.10;;;24.00;71.20;;;;;;5090183;28;43410;-71
2023/07/14 00:43:49;;;;;;;1.10;1.10;;;23.90;71.40;;;;;;5068773;28;46012;-70
2023/07/14 00:46:24;;;;;;;1.00;1.00;;;23.90;71.70;;;;;;5083703;28;43467;-70
2023/07/14 00:48:53;;;;;;;1.10;1.10;;;23.90;71.70;;;;;;5086617;28;43578;-72
2023/07/14 00:51:21;;;;;;;1.07;1.07;;;23.90;71.70;;;;;;5090489;28;43459;-70
2023/07/14 00:53:49;;;;;;;1.00;1.00;;;23.80;71.70;;;;;;5073514;28;43595;-70
2023/07/14 00:56:29;;;;;;;1.10;1.10;;;23.80;71.90;;;;;;5068128;28;43463;-70
2023/07/14 00:58:59;;;;;;;1.10;1.10;;;23.80;71.90;;;;;;5068043;28;43723;-70
2023/07/14 01:01:31;;;;;;;1.10;1.10;;;23.80;71.90;;;;;;5070880;28;43563;-74
2023/07/14 01:03:59;;;;;;;1.20;1.20;;;23.80;72.50;;;;;;5061812;28;45687;-74
2023/07/14 01:06:30;;;;;;;1.03;1.03;;;23.80;72.10;;;;;;5067448;28;44557;-74
2023/07/14 01:09:00;;;;;;;1.20;1.20;;;23.80;72.00;;;;;;5088422;28;43522;-73
2023/07/14 01:11:31;;;;;;;1.00;1.00;;;23.90;71.70;;;;;;5086470;28;43358;-74
2023/07/14 01:14:01;;;;;;;1.30;1.30;;;24.00;71.20;;;;;;5061099;28;43846;-74
2023/07/14 01:16:29;;;;;;;1.13;1.13;;;24.10;71.00;;;;;;5045632;28;45011;-74
2023/07/14 01:18:58;;;;;;;1.10;1.10;;;24.10;70.60;;;;;;5063980;28;43361;-77
2023/07/14 01:21:26;;;;;;;1.20;1.20;;;24.10;70.60;;;;;;5067875;28;43819;-74
2023/07/14 01:24:00;;;;;;;1.13;1.13;;;24.10;70.80;;;;;;5038829;28;43707;-75
2023/07/14 01:26:57;;;;;;;1.20;1.20;;;24.00;71.00;;;;;;5063980;28;45026;-74
2023/07/14 01:29:26;;;;;;;1.13;1.13;;;24.00;70.90;;;;;;5050955;28;43875;-75
2023/07/14 01:31:56;;;;;;;1.10;1.10;;;24.00;71.20;;;;;;5083027;28;43396;-75
2023/07/14 01:34:25;;;;;;;1.33;1.33;;;23.90;71.20;;;;;;5072246;28;43654;-75
2023/07/14 01:36:58;;;;;;;0.93;0.93;;;23.90;71.60;;;;;;5067080;28;46128;-74
2023/07/14 01:39:26;;;;;;;1.10;1.10;;;23.90;71.60;;;;;;5068225;28;43547;-75
2023/07/14 01:41:55;;;;;;;1.00;1.00;;;23.90;71.60;;;;;;5084728;28;43502;-74
2023/07/14 01:44:23;;;;;;;1.00;1.00;;;23.80;71.40;;;;;;5078799;28;43655;-73
2023/07/14 01:46:53;;;;;;;1.00;1.00;;;23.80;71.90;;;;;;5086439;28;43452;-74
2023/07/14 01:49:29;;;;;;;1.10;1.10;;;23.80;71.90;;;;;;5067095;28;43480;-75
2023/07/14 01:51:58;;;;;;;1.30;1.30;;;23.80;71.90;;;;;;5087250;28;43384;-74
2023/07/14 01:54:30;;;;;;;1.00;1.00;;;23.80;71.70;;;;;;5066087;28;44652;-75
2023/07/14 01:56:59;;;;;;;1.00;1.00;;;23.70;72.00;;;;;;5084691;28;43406;-74
2023/07/14 01:59:28;;;;;;;1.03;1.03;;;23.70;72.00;;;;;;5069861;28;43421;-74
2023/07/14 02:01:59;;;;;;;1.10;1.10;;;23.80;71.60;;;;;;5068742;28;43439;-75
2023/07/14 02:04:29;;;;;;;1.00;1.00;;;24.00;71.40;;;;;;5065942;28;45995;-76
2023/07/14 02:06:57;;;;;;;1.10;1.10;;;24.00;70.90;;;;;;5086272;28;43991;-75
2023/07/14 02:09:28;;;;;;;1.07;1.07;;;24.10;70.70;;;;;;5067900;28;43869;-75
2023/07/14 02:11:58;;;;;;;1.10;1.10;;;24.10;70.80;;;;;;5078574;28;43870;-74
2023/07/14 02:14:27;;;;;;;1.07;1.07;;;24.00;70.80;;;;;;5062992;28;45929;-75
2023/07/14 02:16:59;;;;;;;0.90;0.90;;;24.00;71.20;;;;;;5066068;28;44739;-75
2023/07/14 02:19:27;;;;;;;1.10;1.10;;;24.00;71.20;;;;;;5071005;28;43374;-75
2023/07/14 02:21:55;;;;;;;0.97;0.97;;;24.00;71.30;;;;;;5064338;28;43427;-74
2023/07/14 02:24:24;;;;;;;0.90;0.90;;;23.90;71.20;;;;;;5065446;28;45477;-74
2023/07/14 02:26:53;;;;;;;1.10;1.10;;;23.90;71.40;;;;;;5065780;28;44409;-75
2023/07/14 02:29:21;;;;;;;1.00;1.00;;;23.80;71.60;;;;;;5086254;28;44023;-75
2023/07/14 02:31:51;;;;;;;1.20;1.20;;;23.80;71.70;;;;;;5067911;28;43551;-75
2023/07/14 02:34:20;;;;;;;1.00;1.00;;;23.80;71.70;;;;;;5070454;28;45780;-73
2023/07/14 02:36:56;;;;;;;1.07;1.07;;;23.80;71.60;;;;;;5070398;28;43419;-74
2023/07/14 02:39:24;;;;;;;1.00;1.00;;;23.70;72.00;;;;;;5074466;28;43320;-72
2023/07/14 02:41:55;;;;;;;1.10;1.10;;;23.80;71.80;;;;;;5066443;28;43979;-73
2023/07/14 02:44:26;;;;;;;1.10;1.10;;;23.90;71.40;;;;;;5086147;28;43897;-73
2023/07/14 02:46:56;;;;;;;0.90;0.90;;;24.00;71.00;;;;;;5070633;28;45005;-74
2023/07/14 02:49:25;;;;;;;1.00;1.00;;;24.10;70.80;;;;;;5084383;28;43409;-73
2023/07/14 02:51:56;;;;;;;0.87;0.87;;;24.10;70.70;;;;;;5064500;28;43446;-74
2023/07/14 02:54:25;;;;;;;1.00;1.00;;;24.00;70.70;;;;;;5057111;28;45344;-74
2023/07/14 02:56:53;;;;;;;1.03;1.03;;;24.00;71.00;;;;;;5084759;28;43557;-73
2023/07/14 02:59:21;;;;;;;1.00;1.00;;;24.00;71.10;;;;;;5060345;28;43465;-73
2023/07/14 03:01:49;;;;;;;0.97;0.97;;;23.90;71.10;;;;;;5063828;28;43566;-73
2023/07/14 03:04:18;;;;;;;1.10;1.10;;;23.90;71.20;;;;;;5066460;28;45473;-74
2023/07/14 03:06:48;;;;;;;1.03;1.03;;;23.80;71.40;;;;;;5079859;28;43925;-73
2023/07/14 03:09:16;;;;;;;1.00;1.00;;;23.80;71.50;;;;;;5080372;28;43410;-73
2023/07/14 03:11:44;;;;;;;0.90;0.90;;;23.80;71.60;;;;;;5084218;28;43395;-74
2023/07/14 03:14:12;;;;;;;1.10;1.10;;;23.80;71.60;;;;;;5084050;28;44008;-75
2023/07/14 03:16:40;;;;;;;1.07;1.07;;;23.70;71.50;;;;;;5068355;28;43327;-74
2023/07/14 03:19:08;;;;;;;1.23;1.17;;;23.70;72.00;;;;;;5039150;28;43457;-74
2023/07/14 03:21:36;;;;;;;1.10;1.10;;;23.70;71.90;;;;;;5058575;28;43467;-73
2023/07/14 03:24:06;;;;;;;1.10;1.10;;;23.80;71.50;;;;;;5065906;28;45551;-74
2023/07/14 03:26:34;;;;;;;1.00;1.00;;;23.90;71.20;;;;;;5086159;28;43411;-74
2023/07/14 03:29:02;;;;;;;0.83;0.83;;;24.00;70.90;;;;;;5070028;28;43416;-74
2023/07/14 03:31:30;;;;;;;1.13;1.13;;;24.00;70.60;;;;;;5069870;28;43467;-74
2023/07/14 03:33:58;;;;;;;1.00;1.00;;;24.00;70.80;;;;;;5065359;28;45444;-74
2023/07/14 03:36:26;;;;;;;1.10;1.10;;;24.00;71.00;;;;;;5067514;28;45316;-74
2023/07/14 03:39:20;;;;;;;1.00;1.00;;;23.90;71.20;;;;;;5063524;28;43483;-74
2023/07/14 03:41:48;;;;;;;1.17;1.17;;;23.90;71.20;;;;;;5067922;28;43610;-75
2023/07/14 03:44:17;;;;;;;1.10;1.10;;;23.80;71.20;;;;;;5075895;28;43573;-74
2023/07/14 03:46:45;;;;;;;1.10;1.10;;;23.80;71.20;;;;;;5063937;28;43415;-74
2023/07/14 03:49:14;;;;;;;0.93;0.93;;;23.80;71.80;;;;;;5082348;28;43830;-74
2023/07/14 03:51:42;;;;;;;1.00;1.00;;;23.70;71.70;;;;;;5082311;28;43475;-74
2023/07/14 03:54:10;;;;;;;1.00;1.00;;;23.70;71.60;;;;;;5076289;28;43702;-74
2023/07/14 03:56:40;;;;;;;1.20;1.20;;;23.70;71.40;;;;;;5086264;28;43421;-74
2023/07/14 03:59:08;;;;;;;1.20;1.20;;;23.70;72.10;;;;;;5071742;28;43917;-74
2023/07/14 04:01:38;;;;;;;1.00;1.00;;;23.70;71.90;;;;;;5067277;28;43585;-74
2023/07/14 04:04:06;;;;;;;0.97;0.97;;;23.80;71.60;;;;;;5069474;28;43590;-74
2023/07/14 04:06:35;;;;;;;0.93;0.93;;;23.90;71.20;;;;;;5077553;28;43432;-74
2023/07/14 04:09:03;;;;;;;1.10;1.10;;;24.00;70.90;;;;;;5074886;28;43444;-74
2023/07/14 04:11:33;;;;;;;1.10;1.10;;;24.00;70.80;;;;;;5058716;28;43462;-77
2023/07/14 04:14:03;;;;;;;1.00;1.00;;;24.00;70.80;;;;;;5063286;28;43684;-75
2023/07/14 04:16:31;;;;;;;1.00;1.00;;;23.90;70.80;;;;;;5059344;28;44927;-74
2023/07/14 04:18:59;;;;;;;1.00;1.00;;;23.90;71.30;;;;;;5085576;28;43891;-76
2023/07/14 04:21:27;;;;;;;0.83;0.83;;;23.90;71.20;;;;;;5088464;28;43430;-74
2023/07/14 04:23:56;;;;;;;1.13;1.13;;;23.90;71.30;;;;;;5064968;28;45670;-74
2023/07/14 04:26:24;;;;;;;1.00;1.00;;;23.80;71.00;;;;;;5078029;28;43354;-74
2023/07/14 04:28:52;;;;;;;1.03;1.03;;;23.80;71.60;;;;;;5070100;28;43944;-75
2023/07/14 04:31:21;;;;;;;0.80;0.80;;;23.80;71.70;;;;;;5062612;28;43416;-74
2023/07/14 04:33:51;;;;;;;1.10;1.10;;;23.70;71.60;;;;;;5073781;28;43899;-74
2023/07/14 04:36:19;;;;;;;1.17;1.17;;;23.70;71.30;;;;;;5068912;28;43626;-75
2023/07/14 04:39:01;;;;;;;0.90;0.90;;;23.70;71.90;;;;;;5064513;28;43443;-74
2023/07/14 04:41:29;;;;;;;1.00;1.00;;;23.70;71.80;;;;;;5079762;28;43407;-74
2023/07/14 04:43:57;;;;;;;1.00;1.00;;;23.80;71.60;;;;;;5062368;28;45686;-73
2023/07/14 04:46:26;;;;;;;1.17;1.17;;;23.90;71.10;;;;;;5063161;28;45900;-74
2023/07/14 04:48:54;;;;;;;1.07;1.07;;;24.00;70.90;;;;;;5064037;28;43454;-74
2023/07/14 04:51:22;;;;;;;1.00;1.00;;;24.10;70.50;;;;;;5062065;28;43493;-73
2023/07/14 04:53:50;;;;;;;1.07;1.07;;;24.10;70.50;;;;;;5075951;28;43591;-75
2023/07/14 04:56:18;;;;;;;0.90;0.90;;;24.00;70.60;;;;;;5085220;28;43490;-75
2023/07/14 04:58:46;;;;;;;1.10;1.10;;;24.00;70.90;;;;;;5080647;27;43469;-75
2023/07/14 05:01:14;;;;;;;1.27;1.20;;;23.90;71.00;;;;;;5086280;28;43455;-75
2023/07/14 05:03:44;;;;;;;1.10;1.10;;;23.90;71.00;;;;;;5088799;28;43611;-75
2023/07/14 05:06:12;;;;;;;1.00;1.00;;;23.90;71.00;;;;;;5064307;28;44929;-75
2023/07/14 05:08:41;;;;;;;1.10;1.10;;;23.80;71.00;;;;;;5064315;28;43435;-75
2023/07/14 05:11:09;;;;;;;1.00;1.00;;;23.80;71.50;;;;;;5061791;28;43520;-75
2023/07/14 05:13:37;;;;;;;0.93;0.93;;;23.80;71.50;;;;;;5053097;28;45935;-74
2023/07/14 05:16:05;;;;;;;0.83;0.83;;;23.70;71.40;;;;;;5061311;28;44796;-74
2023/07/14 05:18:33;;;;;;;1.10;1.10;;;23.70;71.20;;;;;;5084545;28;43379;-75
2023/07/14 05:21:04;;;;;;;1.00;1.00;;;23.70;71.80;;;;;;5083829;28;43368;-75
2023/07/14 05:23:33;;;;;;;1.10;1.10;;;23.70;71.80;;;;;;5082767;28;43851;-75
2023/07/14 05:26:01;;;;;;;1.13;1.13;;;23.70;71.70;;;;;;5061845;28;44593;-75
2023/07/14 05:28:29;;;;;;;1.00;1.00;;;23.70;71.50;;;;;;5081003;28;43452;-74
2023/07/14 05:30:58;;;;;;;1.10;1.10;;;23.70;71.60;;;;;;5086413;28;43532;-76
2023/07/14 05:33:30;;;;;;;1.20;1.20;;;23.60;71.90;;;;;;5064972;28;45870;-75
2023/07/14 05:35:58;;;;;;;1.00;1.00;;;23.70;71.70;;;;;;5081794;28;43960;-75
2023/07/14 05:38:29;;;;;;;1.00;1.00;;;23.80;71.40;;;;;;5078231;28;43388;-75
2023/07/14 05:40:57;;;;;;;0.90;0.90;;;23.90;70.90;;;;;;5059955;28;43596;-75
2023/07/14 05:43:27;;;;;;;1.13;1.13;;;24.00;70.70;;;;;;5086661;28;43615;-76
2023/07/14 05:45:55;;;;;;;1.00;1.00;;;24.00;70.40;;;;;;5063827;28;44992;-75
2023/07/14 05:48:23;;;;;;;1.17;1.17;;;24.00;70.40;;;;;;5080978;28;43489;-74
2023/07/14 05:50:51;;;;;;;1.10;1.10;;;24.00;70.70;;;;;;5087050;28;44047;-75
2023/07/14 05:53:19;;;;;;;1.00;1.00;;;23.90;70.80;;;;;;5081955;28;43753;-75
2023/07/14 05:55:49;;;;;;;1.00;0.97;;;23.90;70.80;;;;;;5086889;28;43444;-75
2023/07/14 05:58:17;;;;;;;1.20;1.20;;;23.90;70.90;;;;;;5082987;28;43298;-75
2023/07/14 06:00:45;;;;;;;1.00;1.00;;;23.80;70.90;;;;;;5069770;28;43583;-75
2023/07/14 06:03:16;;;;;;;1.10;1.10;;;23.80;71.40;;;;;;5080822;28;43983;-75
2023/07/14 06:05:44;;;;;;;0.97;0.97;;;23.80;71.30;;;;;;5066407;28;43310;-75
2023/07/14 06:08:13;;;;;;;1.07;1.07;;;23.70;71.20;;;;;;5058166;28;43435;-74
2023/07/14 06:10:41;;;;;;;1.07;1.07;;;23.70;71.10;;;;;;5058797;28;44369;-74
2023/07/14 06:13:10;;;;;;;1.20;1.20;;;23.70;71.60;;;;;;5083721;28;43883;-74
2023/07/14 06:15:38;;;;;;;0.93;0.93;;;23.70;71.70;;;;;;5042623;28;44328;-73
2023/07/14 06:18:06;;;;;;;1.10;1.10;;;23.70;71.70;;;;;;5062394;28;43460;-73
2023/07/14 06:20:34;;;;;;;1.00;1.00;;;23.60;71.40;;;;;;5087795;28;44146;-73
2023/07/14 06:23:02;;;;;;;1.20;1.20;;;23.60;71.90;;;;;;5061098;28;45712;-73
2023/07/14 06:25:31;;;;;;;0.90;0.90;;;23.60;71.80;;;;;;5076101;28;43426;-73
2023/07/14 06:27:59;;;;;;;1.10;1.10;;;23.70;71.60;;;;;;5084168;28;43316;-74
2023/07/14 06:30:28;;;;;;;1.10;1.10;;;23.80;71.20;;;;;;5084033;28;44069;-73
2023/07/14 06:32:56;;;;;;;1.00;1.00;;;23.90;70.80;;;;;;5057869;28;44772;-75
2023/07/14 06:35:25;;;;;;;1.17;1.17;;;24.00;70.60;;;;;;5076251;28;43387;-75
2023/07/14 06:37:55;;;;;;;1.00;1.00;;;24.00;70.50;;;;;;5061781;28;43547;-75
2023/07/14 06:40:23;;;;;;;0.90;0.90;;;23.90;70.40;;;;;;5064454;28;43878;-75
2023/07/14 06:42:51;;;;;;;1.20;1.20;;;23.90;70.70;;;;;;5066071;28;43923;-75
2023/07/14 06:45:19;;;;;;;1.20;1.20;;;23.80;70.80;;;;;;5058861;28;45346;-75
2023/07/14 06:47:49;;;;;;;1.03;1.03;;;23.80;70.80;;;;;;5084821;28;43359;-75
2023/07/14 06:50:17;;;;;;;1.10;1.10;;;23.80;70.90;;;;;;5076941;28;43478;-75
2023/07/14 06:52:45;;;;;;;1.00;1.00;;;23.70;71.00;;;;;;5055774;28;45951;-75
2023/07/14 06:55:13;;;;;;;1.03;1.03;;;23.70;71.40;;;;;;5058647;28;44733;-75
2023/07/14 06:57:41;;;;;;;1.20;1.20;;;23.70;71.20;;;;;;5082015;28;43352;-75
2023/07/14 07:00:12;;;;;;;1.10;1.10;;;23.80;71.00;;;;;;5083607;28;43822;-74
2023/07/14 07:02:40;;;;;;;1.00;1.00;;;23.80;71.00;;;;;;5083281;28;43815;-74
2023/07/14 07:05:11;;;;;;;1.00;1.00;;;23.80;71.00;;;;;;5067541;28;43511;-73
2023/07/14 07:07:39;;;;;;;1.00;1.00;;;23.70;71.20;;;;;;5080991;28;44059;-74
2023/07/14 07:10:08;;;;;;;1.10;1.10;;;23.70;71.20;;;;;;5078700;28;43519;-75
2023/07/14 07:12:36;;;;;;;1.13;1.13;;;23.70;71.20;;;;;;5061828;28;46171;-74
2023/07/14 07:15:05;;;;;;;1.23;1.17;;;23.70;71.10;;;;;;5065117;28;45024;-75
2023/07/14 07:17:33;;;;;;;1.00;1.00;;;23.70;71.60;;;;;;5077110;28;43945;-75
2023/07/14 07:20:02;;;;;;;1.00;1.00;;;23.70;71.60;;;;;;5063222;28;43364;-75
2023/07/14 07:22:32;;;;;;;1.03;1.03;;;23.70;71.30;;;;;;5065662;28;45408;-75
2023/07/14 07:25:00;;;;;;;1.10;1.10;;;23.80;71.20;;;;;;5081274;28;43422;-74
2023/07/14 07:27:28;;;;;;;1.07;1.07;;;23.90;70.90;;;;;;5065891;28;43424;-74
2023/07/14 07:29:56;;;;;;;1.03;1.03;;;23.90;70.60;;;;;;5073156;28;43377;-74
2023/07/14 07:32:24;;;;;;;1.00;1.00;;;24.00;70.60;;;;;;5076941;28;43727;-77
2023/07/14 07:34:52;;;;;;;1.20;1.20;;;23.90;70.60;;;;;;5083980;28;43529;-76
2023/07/14 07:37:20;;;;;;;1.20;1.20;;;23.90;71.00;;;;;;5079210;28;43938;-75
2023/07/14 07:39:54;;;;;;;1.17;1.17;;;23.80;70.90;;;;;;5081819;28;43455;-75
2023/07/14 07:42:22;;;;;;;1.00;1.00;;;23.80;71.00;;;;;;5064088;28;44610;-75
2023/07/14 07:44:50;;;;;;;0.90;0.90;;;23.70;70.90;;;;;;5082936;28;44002;-75
2023/07/14 07:47:18;;;;;;;1.10;1.10;;;23.70;71.40;;;;;;5071650;28;43383;-75
2023/07/14 07:49:47;;;;;;;1.17;1.17;;;23.70;71.60;;;;;;5078893;28;43408;-75
2023/07/14 07:52:15;;;;;;;1.20;1.20;;;23.70;71.60;;;;;;5083814;28;43842;-75
2023/07/14 07:54:45;;;;;;;1.10;1.10;;;23.60;71.40;;;;;;5066172;28;43360;-75
2023/07/14 07:57:14;;;;;;;1.10;1.10;;;23.60;71.50;;;;;;5056011;28;43949;-75
2023/07/14 07:59:42;;;;;;;1.13;1.13;;;23.60;72.00;;;;;;5068604;28;43372;-75
2023/07/14 08:02:12;;;;;;;1.00;1.00;;;23.60;71.90;;;;;;5061394;28;45797;-75
2023/07/14 08:04:40;;;;;;;1.10;1.10;;;23.70;71.60;;;;;;5083796;28;43409;-74
2023/07/14 08:07:10;;;;;;;0.93;0.93;;;23.80;71.20;;;;;;5072138;28;43397;-74
2023/07/14 08:09:38;;;;;;;0.90;0.90;;;23.90;71.00;;;;;;5057741;28;43491;-74
2023/07/14 08:12:07;;;;;;;1.00;1.00;;;23.90;70.90;;;;;;5062169;28;43601;-74
2023/07/14 08:14:50;;;;;;;1.10;1.10;;;23.80;70.90;;;;;;5059862;28;43456;-75
2023/07/14 08:17:22;;;;;;;1.10;1.10;;;23.70;71.20;;;;;;5063524;28;43380;-75
2023/07/14 08:19:50;;;;;;;1.00;1.00;;;23.70;71.30;;;;;;5067928;28;43380;-74
2023/07/14 08:22:18;;;;;;;1.00;1.00;;;23.70;71.40;;;;;;5078861;28;43750;-75
2023/07/14 08:24:46;;;;;;;0.90;0.90;;;23.70;71.30;;;;;;5075201;28;43360;-75
2023/07/14 08:27:15;;;;;;;1.00;1.00;;;23.60;71.70;;;;;;5075181;28;43515;-74
2023/07/14 08:29:44;;;;;;;1.00;1.00;;;23.60;71.80;;;;;;5067182;28;43368;-74
2023/07/14 08:32:12;;;;;;;1.10;1.10;;;23.70;71.70;;;;;;5079701;28;44120;-75
2023/07/14 08:34:40;;;;;;;1.10;1.10;;;23.70;71.30;;;;;;5070704;28;43420;-74
2023/07/14 08:37:08;;;;;;;1.07;1.07;;;23.80;70.90;;;;;;5079023;28;43732;-74
2023/07/14 08:39:36;;;;;;;1.10;1.10;;;23.90;70.80;;;;;;5090151;28;43379;-74
2023/07/14 08:42:07;;;;;;;1.20;1.20;;;23.90;70.80;;;;;;5080332;28;43758;-75
2023/07/14 08:44:45;;;;;;;1.10;1.10;;;23.80;70.70;;;;;;5073870;28;43323;-73
2023/07/14 08:47:17;;;;;;;1.03;1.03;;;23.70;71.20;;;;;;5087051;28;43482;-74
2023/07/14 08:49:49;;;;;;;1.07;1.07;;;23.70;71.20;;;;;;5066051;28;45005;-74
2023/07/14 08:52:20;;;;;;;1.07;1.07;;;23.70;71.30;;;;;;5086502;28;43743;-75
2023/07/14 08:54:50;;;;;;;0.90;0.90;;;23.70;71.20;;;;;;5055584;28;43648;-76
2023/07/14 08:57:19;;;;;;;1.10;1.10;;;23.60;71.60;;;;;;5067380;28;43353;-73
2023/07/14 08:59:49;;;;;;;1.10;1.10;;;23.60;71.80;;;;;;5070058;28;43515;-73
2023/07/14 09:02:19;;;;;;;1.00;1.00;;;23.60;71.70;;;;;;5078723;28;43836;-74
2023/07/14 09:04:59;;;;;;;0.90;0.90;;;23.60;71.60;;;;;;5086242;28;43419;-74
2023/07/14 09:07:28;;;;;;;1.00;1.00;;;23.60;71.50;;;;;;5063416;28;43474;-76
2023/07/14 09:09:56;;;;;;;1.20;1.20;;;23.50;71.90;;;;;;5059523;28;43526;-74
2023/07/14 09:12:28;;;;;;;1.00;1.00;;;23.60;71.90;;;;;;5085583;28;43766;-73
2023/07/14 09:14:59;;;;;;;1.10;1.10;;;23.60;71.60;;;;;;5069174;28;43429;-73
2023/07/14 09:17:38;;;;;;;0.97;0.97;;;23.70;71.20;;;;;;5064780;28;43455;-74
2023/07/14 09:20:47;;;;;;;0.90;0.90;;;23.90;71.00;;;;;;5085909;28;43365;-74
2023/07/14 09:23:21;;;;;;;1.00;1.00;;;23.90;70.80;;;;;;5051687;28;45725;-73
2023/07/14 09:25:54;;;;;;;0.90;0.90;;;23.80;70.60;;;;;;5065055;28;43522;-73
2023/07/14 09:28:27;;;;;;;1.00;1.00;;;23.80;71.20;;;;;;5074440;28;43994;-73
2023/07/14 09:30:56;;;;;;;1.00;1.00;;;23.70;71.20;;;;;;5083534;28;43324;-73
2023/07/14 09:33:26;;;;;;;0.90;0.90;;;23.70;71.20;;;;;;5070593;28;43588;-72
2023/07/14 09:35:54;;;;;;;1.00;1.00;;;23.70;71.20;;;;;;5080521;28;43954;-74
2023/07/14 09:38:23;;;;;;;0.90;0.90;;;23.60;71.30;;;;;;5061539;28;43388;-74
2023/07/14 09:40:57;;;;;;;1.00;1.00;;;23.60;71.70;;;;;;5068182;28;43483;-74
2023/07/14 09:43:25;;;;;;;0.90;0.90;;;23.60;71.70;;;;;;5069535;27;45055;-74
2023/07/14 09:45:55;;;;;;;0.90;0.90;;;23.60;71.40;;;;;;5067425;28;43486;-74
2023/07/14 09:48:26;;;;;;;0.80;0.80;;;23.50;72.30;;;;;;5078907;28;43411;-76
2023/07/14 09:50:56;;;;;;;1.00;1.00;;;23.50;72.00;;;;;;5061306;28;44732;-73
2023/07/14 09:53:24;;;;;;;1.00;1.00;;;23.50;71.80;;;;;;5065431;28;43678;-76
2023/07/14 09:55:55;;;;;;;1.03;1.03;;;23.50;71.70;;;;;;5069042;28;43876;-74
2023/07/14 09:58:25;;;;;;;1.00;1.00;;;23.50;71.60;;;;;;5047758;28;43481;-75
2023/07/14 10:00:54;;;;;;;0.80;0.80;;;23.50;72.10;;;;;;5063878;28;43506;-75
2023/07/14 10:03:29;;;;;;;0.80;0.80;;;23.50;72.00;;;;;;5053462;28;45292;-75
2023/07/14 10:06:16;;;;;;;1.00;1.00;;;23.60;71.80;;;;;;5084521;28;44060;-74
2023/07/14 10:08:47;;;;;;;1.00;1.00;;;23.80;71.40;;;;;;5080817;28;43396;-74
2023/07/14 10:11:20;;;;;;;0.90;0.90;;;23.90;71.10;;;;;;5072840;28;43539;-74
2023/07/14 10:13:53;;;;;;;1.00;1.00;;;23.90;70.80;;;;;;5068405;28;43746;-74
2023/07/14 10:16:21;;;;;;;1.10;1.10;;;23.90;70.80;;;;;;5085701;28;43451;-76
2023/07/14 10:18:55;;;;;;;0.90;0.90;;;23.80;70.90;;;;;;5066067;28;44025;-73
2023/07/14 10:21:26;;;;;;;0.80;0.80;;;23.70;71.20;;;;;;5059892;28;43491;-76
2023/07/14 10:24:04;;;;;;;0.90;0.90;;;23.70;71.20;;;;;;5067241;28;45883;-74
2023/07/14 10:26:34;;;;;;;1.00;1.00;;;23.70;71.10;;;;;;5085742;28;43539;-73
2023/07/14 10:29:04;;;;;;;0.87;0.87;;;23.70;71.20;;;;;;5069809;28;43825;-75
2023/07/14 10:31:37;;;;;;;1.10;1.10;;;23.60;71.80;;;;;;5068756;28;43951;-74
2023/07/14 10:34:32;;;;;;;0.90;0.90;;;23.60;71.80;;;;;;5072472;28;43596;-74
2023/07/14 10:37:01;;;;;;;1.03;1.03;;;23.60;71.50;;;;;;5047407;28;44674;-73
2023/07/14 10:39:35;;;;;;;1.70;1.07;;;23.60;71.40;;;;;;5068675;28;43933;-73
2023/07/14 10:42:04;;;;;;;0.83;0.83;;;23.50;71.90;;;;;;5087264;28;43383;-74
2023/07/14 10:44:34;;;;;;;0.80;0.80;;;23.60;72.00;;;;;;5084004;28;43863;-74
2023/07/14 10:47:03;;;;;;;1.03;1.03;;;23.60;71.70;;;;;;5087949;28;43999;-74
2023/07/14 10:49:36;;;;;;;1.00;1.00;;;23.70;71.30;;;;;;5061194;28;43356;-75
2023/07/14 10:52:06;;;;;;;0.83;0.83;;;23.80;71.00;;;;;;5082090;28;43601;-75
2023/07/14 10:54:44;;;;;;;1.00;1.00;;;23.90;70.90;;;;;;5081459;28;43666;-75
2023/07/14 10:57:18;;;;;;;0.73;0.73;;;23.80;70.80;;;;;;5065729;28;43447;-75
2023/07/14 10:59:50;;;;;;;0.80;0.80;;;23.80;71.00;;;;;;5083674;28;43452;-75
2023/07/14 11:02:21;;;;;;;0.90;0.90;;;23.70;71.20;;;;;;5076297;28;43349;-74
2023/07/14 11:04:52;;;;;;;0.90;0.90;;;23.70;71.30;;;;;;5061496;28;43560;-75
2023/07/14 11:07:24;;;;;;;0.97;0.80;;;23.70;71.10;;;;;;5071763;28;44143;-75
2023/07/14 11:09:52;;;;;;;0.97;0.97;;;23.60;71.00;;;;;;5074839;28;43360;-75
2023/07/14 11:12:25;;;;;;;1.00;1.00;;;23.60;71.70;;;;;;5050510;28;43507;-75
2023/07/14 11:14:54;;;;;;;0.90;0.90;;;23.60;71.70;;;;;;5072510;28;43604;-74
2023/07/14 11:17:25;;;;;;;0.87;0.87;;;23.60;71.70;;;;;;5080802;28;44076;-74
2023/07/14 11:20:03;;;;;;;0.97;0.97;;;23.60;71.40;;;;;;5084055;28;43336;-74
2023/07/14 11:23:04;;;;;;;0.80;0.80;;;23.50;71.80;;;;;;5056848;28;43566;-75
2023/07/14 11:25:34;;;;;;;0.93;0.93;;;23.50;71.90;;;;;;5057522;28;46050;-75
2023/07/14 11:28:04;;;;;;;1.00;1.00;;;23.60;71.90;;;;;;5085308;28;43431;-75
2023/07/14 11:30:35;;;;;;;1.20;1.20;;;23.70;71.30;;;;;;5075664;28;43803;-75
2023/07/14 11:33:06;;;;;;;1.00;1.00;;;23.80;71.00;;;;;;5039486;28;43572;-75
2023/07/14 11:35:36;;;;;;;1.20;1.20;;;23.90;71.00;;;;;;5069450;28;43866;-74
2023/07/14 11:38:14;;;;;;;1.20;1.20;;;23.80;70.80;;;;;;5070017;28;43858;-74
2023/07/14 11:40:43;;;;;;;1.20;1.20;;;23.80;70.70;;;;;;5071709;28;43403;-75
2023/07/14 11:43:14;;;;;;;1.13;1.13;;;23.70;71.20;;;;;;5068603;28;44100;-75
2023/07/14 11:45:42;;;;;;;1.20;1.10;;;23.70;71.30;;;;;;5057364;28;45687;-74
2023/07/14 11:48:22;;;;;;;1.30;1.20;;;23.60;71.10;;;;;;5077433;28;43378;-75
2023/07/14 11:51:05;;;;;;;1.30;1.30;;;23.60;71.10;;;;;;5065878;28;43427;-75
2023/07/14 11:53:33;;;;;;;1.30;1.30;;;23.60;72.40;;;;;;5049707;28;43456;-75
2023/07/14 11:56:23;;;;;;;1.33;1.33;;;23.60;71.60;;;;;;5062799;28;45746;-75
2023/07/14 11:59:05;;;;;;;1.50;1.50;;;23.60;71.50;;;;;;5078144;28;43424;-75
2023/07/14 12:01:34;;;;;;;1.27;1.13;;;23.50;71.20;;;;;;5086746;28;43511;-75
2023/07/14 12:04:21;;;;;;;1.63;1.30;;;23.50;71.70;;;;;;5053445;28;43586;-75
2023/07/14 12:06:51;;;;;;;2.33;1.60;;;23.50;71.50;;;;;;5065092;28;43595;-75
2023/07/14 12:09:19;;;;;;;1.60;1.53;;;23.60;71.20;;;;;;5082591;28;43413;-75
2023/07/14 12:11:53;;;;;;;2.07;1.50;;;23.70;71.60;;;;;;5081946;28;43380;-75
2023/07/14 12:14:29;;;;;;;3.03;1.47;;;23.80;70.70;;;;;;5081858;28;43426;-74
2023/07/14 12:16:58;;;;;;;1.50;1.40;;;23.80;70.60;;;;;;5086942;28;43857;-74
2023/07/14 12:19:27;;;;;;;1.50;1.47;;;23.80;70.60;;;;;;5067750;28;44423;-73
2023/07/14 12:22:04;;;;;;;3.63;1.57;;;23.70;70.80;;;;;;5083950;28;43478;-74
2023/07/14 12:24:33;;;;;;;1.50;1.50;;;23.70;71.10;;;;;;5059263;28;43937;-73
2023/07/14 12:27:08;;;;;;;2.00;1.90;;;23.70;71.00;;;;;;5050574;28;44422;-74
2023/07/14 12:29:36;;;;;;;1.43;1.43;;;23.60;70.90;;;;;;5061945;28;43479;-73
2023/07/14 12:32:24;;;;;;;1.33;1.30;;;23.60;71.00;;;;;;5071069;28;43480;-74
2023/07/14 12:34:52;;;;;;;1.50;1.40;;;23.60;71.70;;;;;;5053757;28;43754;-74
2023/07/14 12:37:22;;;;;;;1.40;1.40;;;23.60;71.50;;;;;;5054856;28;45984;-74
2023/07/14 12:39:51;;;;;;;1.50;1.50;;;23.50;71.30;;;;;;5067414;28;43351;-74
2023/07/14 12:42:19;;;;;;;1.30;1.30;;;23.50;71.20;;;;;;5065084;28;44038;-74
2023/07/14 12:44:47;;;;;;;1.77;1.67;;;23.50;71.90;;;;;;5065496;28;43448;-73
2023/07/14 12:47:16;;;;;;;1.50;1.40;;;23.60;71.90;;;;;;5083958;28;43777;-74
2023/07/14 12:49:47;;;;;;;1.53;1.50;;;23.60;71.40;;;;;;5085938;28;43395;-73
2023/07/14 12:52:17;;;;;;;1.73;1.63;;;23.70;71.20;;;;;;5085388;28;43940;-74
2023/07/14 12:54:47;;;;;;;1.50;1.50;;;23.70;71.00;;;;;;5080488;28;43547;-73
2023/07/14 12:57:17;;;;;;;1.30;1.30;;;23.70;71.00;;;;;;5064918;28;45638;-75
2023/07/14 12:59:48;;;;;;;1.27;1.27;;;23.70;71.40;;;;;;5080354;28;43438;-74
2023/07/14 13:02:16;;;;;;;1.33;1.33;;;23.70;71.40;;;;;;5085767;28;43404;-75
2023/07/14 13:04:44;;;;;;;1.50;1.50;;;23.70;71.20;;;;;;5088342;28;43452;-76